Time;durP1;ratioP1;P1;durP2;ratioP2;P2;SDS_P1;SDS_P2;PMS_P1;PMS_P2;Temp;Humidity;BMP_temperature;BMP_pressure;BME280_temperature;BME280_humidity;BME280_pressure;Samples;Min_cycle;Max_cycle;Signal;HPM_P1;HPM_P2
2023/11/21 00:00:27;;;;;;;0.50;0.50;;;;;;;6.51;100.00;96285.25;29395;197;63004;-61
2023/11/21 00:00:58;;;;;;;0.60;0.60;;;;;;;6.51;100.00;96289.84;29395;264;63008;-61
2023/11/21 00:01:30;;;;;;;0.50;0.50;;;;;;;6.52;100.00;96286.88;29395;205;63005;-59
2023/11/21 00:02:01;;;;;;;0.50;0.50;;;;;;;6.53;100.00;96285.78;29395;257;63009;-61
2023/11/21 00:02:32;;;;;;;0.50;0.50;;;;;;;6.52;100.00;96286.88;29394;242;64009;-61
2023/11/21 00:03:04;;;;;;;0.50;0.50;;;;;;;6.51;100.00;96285.25;29395;236;63009;-61
2023/11/21 00:03:35;;;;;;;0.50;0.50;;;;;;;6.50;100.00;96283.66;29395;224;63016;-61
2023/11/21 00:04:07;;;;;;;0.50;0.50;;;;;;;6.49;100.00;96282.03;29395;204;63009;-60
2023/11/21 00:04:38;;;;;;;0.50;0.50;;;;;;;6.49;100.00;96281.22;29394;213;64009;-60
2023/11/21 00:05:10;;;;;;;0.60;0.60;;;;;;;6.50;100.00;96283.66;29395;213;63009;-61
2023/11/21 00:05:42;;;;;;;0.50;0.50;;;;;;;6.53;100.00;96280.41;29394;219;64009;-60
2023/11/21 00:06:14;;;;;;;0.60;0.60;;;;;;;6.53;100.00;96283.09;29395;233;63009;-61
2023/11/21 00:06:46;;;;;;;0.52;0.52;;;;;;;6.52;100.00;96286.88;29395;225;63004;-61
2023/11/21 00:07:18;;;;;;;0.60;0.60;;;;;;;6.51;100.00;96279.88;29395;234;63009;-62
2023/11/21 00:07:51;;;;;;;0.60;0.60;;;;;;;6.52;100.00;96281.47;29394;249;64009;-61
2023/11/21 00:08:22;;;;;;;0.50;0.50;;;;;;;6.53;100.00;96275.00;29395;198;63008;-61
2023/11/21 00:08:53;;;;;;;0.60;0.60;;;;;;;6.54;100.00;96283.91;29395;248;63004;-60
2023/11/21 00:09:25;;;;;;;0.60;0.60;;;;;;;6.52;100.00;96278.78;29395;198;63009;-60
2023/11/21 00:09:56;;;;;;;0.60;0.60;;;;;;;6.50;100.00;96289.03;29395;204;63005;-60
2023/11/21 00:10:28;;;;;;;0.60;0.60;;;;;;;6.49;100.00;96282.03;29394;240;64014;-61
2023/11/21 00:11:00;;;;;;;0.50;0.50;;;;;;;6.50;100.00;96278.25;29395;203;63005;-60
2023/11/21 00:11:31;;;;;;;0.60;0.60;;;;;;;6.49;100.00;96275.84;29395;218;63009;-60
2023/11/21 00:12:03;;;;;;;0.60;0.60;;;;;;;6.49;100.00;96279.34;29394;228;64009;-61
2023/11/21 00:12:35;;;;;;;0.60;0.60;;;;;;;6.49;100.00;96276.66;29394;235;64001;-60
2023/11/21 00:13:08;;;;;;;0.60;0.60;;;;;;;6.48;100.00;96275.03;29395;234;63008;-61
2023/11/21 00:13:39;;;;;;;0.50;0.50;;;;;;;6.49;100.00;96275.84;29395;235;63009;-61
2023/11/21 00:14:11;;;;;;;0.50;0.50;;;;;;;6.48;100.00;96266.97;29395;247;63004;-61
2023/11/21 00:14:43;;;;;;;0.50;0.50;;;;;;;6.49;100.00;96271.25;29395;229;63009;-60
2023/11/21 00:15:14;;;;;;;0.50;0.50;;;;;;;6.50;100.00;96272.88;29395;210;63004;-61
2023/11/21 00:15:45;;;;;;;0.50;0.50;;;;;;;6.51;100.00;96269.09;29394;253;64013;-60
2023/11/21 00:16:16;;;;;;;0.60;0.60;;;;;;;6.51;100.00;96274.47;29395;272;63004;-59
2023/11/21 00:16:48;;;;;;;0.52;0.52;;;;;;;6.49;100.00;96263.19;29395;305;63009;-61
2023/11/21 00:17:19;;;;;;;0.50;0.50;;;;;;;6.53;100.00;96266.91;29395;270;63005;-60
2023/11/21 00:17:50;;;;;;;0.60;0.60;;;;;;;6.54;100.00;96263.12;29395;213;63009;-59
2023/11/21 00:18:21;;;;;;;0.60;0.60;;;;;;;6.54;100.00;96262.34;29395;270;63005;-61
2023/11/21 00:18:54;;;;;;;0.50;0.50;;;;;;;6.55;100.00;96269.34;29395;218;63009;-60
2023/11/21 00:19:25;;;;;;;0.60;0.60;;;;;;;6.53;100.00;96272.31;29395;222;63005;-61
2023/11/21 00:19:56;;;;;;;0.50;0.50;;;;;;;6.53;100.00;96266.91;29394;211;64013;-60
2023/11/21 00:20:28;;;;;;;0.60;0.60;;;;;;;6.53;100.00;96271.50;29395;266;63004;-60
2023/11/21 00:20:59;;;;;;;0.50;0.50;;;;;;;6.51;100.00;96268.28;29394;265;64013;-61
2023/11/21 00:21:30;;;;;;;0.50;0.50;;;;;;;6.51;100.00;96269.09;29395;225;63014;-59
2023/11/21 00:22:01;;;;;;;0.60;0.60;;;;;;;6.50;100.00;96267.47;29395;220;63009;-60
2023/11/21 00:22:36;;;;;;;0.50;0.50;;;;;;;6.51;100.00;96262.91;29395;216;63004;-59
2023/11/21 00:23:07;;;;;;;0.50;0.50;;;;;;;6.51;100.00;96258.31;29394;225;64005;-60
2023/11/21 00:23:38;;;;;;;0.50;0.50;;;;;;;6.50;100.00;96264.78;29395;220;63005;-60
2023/11/21 00:24:13;;;;;;;0.52;0.52;;;;;;;6.52;100.00;96264.50;29395;232;63009;-60
2023/11/21 00:24:44;;;;;;;0.50;0.50;;;;;;;6.52;100.00;96267.19;29395;234;63005;-59
2023/11/21 00:25:17;;;;;;;0.60;0.60;;;;;;;6.52;100.00;96262.62;29395;242;63009;-60
2023/11/21 00:25:48;;;;;;;0.50;0.50;;;;;;;6.52;100.00;96270.69;29394;197;64009;-60
2023/11/21 00:26:19;;;;;;;0.55;0.55;;;;;;;6.55;100.00;96263.94;29394;269;64013;-59
2023/11/21 00:26:51;;;;;;;0.60;0.60;;;;;;;6.57;100.00;96262.56;29395;218;63005;-60
2023/11/21 00:27:22;;;;;;;0.57;0.57;;;;;;;6.59;100.00;96260.38;29395;197;63009;-60
2023/11/21 00:27:54;;;;;;;0.50;0.50;;;;;;;6.58;100.00;96263.38;29395;212;63004;-58
2023/11/21 00:28:26;;;;;;;0.50;0.50;;;;;;;6.57;100.00;96262.56;29395;219;63009;-59
2023/11/21 00:28:57;;;;;;;0.60;0.60;;;;;;;6.55;100.00;96264.75;29395;229;63004;-59
2023/11/21 00:29:28;;;;;;;0.60;0.60;;;;;;;6.56;100.00;96260.97;29395;207;63009;-59
2023/11/21 00:29:59;;;;;;;0.50;0.50;;;;;;;6.59;100.00;96263.06;29395;220;63004;-61
2023/11/21 00:30:31;;;;;;;0.50;0.50;;;;;;;6.62;100.00;96257.13;29395;231;63008;-61
2023/11/21 00:31:04;;;;;;;0.60;0.60;;;;;;;6.62;100.00;96267.09;29394;235;64009;-60
2023/11/21 00:31:38;;;;;;;0.50;0.50;;;;;;;6.59;100.00;96268.47;29394;245;64014;-60
2023/11/21 00:32:10;;;;;;;0.60;0.60;;;;;;;6.56;100.00;96266.34;29395;267;63005;-60
2023/11/21 00:32:41;;;;;;;0.50;0.50;;;;;;;6.55;100.00;96263.94;29395;264;63009;-59
2023/11/21 00:33:12;;;;;;;0.60;0.60;;;;;;;6.53;100.00;96256.13;29395;203;63005;-59
2023/11/21 00:33:44;;;;;;;0.50;0.50;;;;;;;6.53;100.00;96266.13;29395;248;63009;-59
2023/11/21 00:34:15;;;;;;;0.60;0.60;;;;;;;6.52;100.00;96264.50;29395;246;63014;-59
2023/11/21 00:34:47;;;;;;;0.50;0.50;;;;;;;6.50;100.00;96262.09;29395;243;63009;-61
2023/11/21 00:35:18;;;;;;;0.50;0.50;;;;;;;6.50;100.00;96262.09;29395;242;63004;-60
2023/11/21 00:35:49;;;;;;;0.52;0.52;;;;;;;6.51;100.00;96263.69;29395;243;63009;-61
2023/11/21 00:36:20;;;;;;;0.60;0.60;;;;;;;6.50;100.00;96262.09;29394;203;64009;-59
2023/11/21 00:36:52;;;;;;;0.57;0.57;;;;;;;6.49;100.00;96260.47;29394;209;64013;-61
2023/11/21 00:37:24;;;;;;;0.60;0.60;;;;;;;6.53;100.00;96266.13;29395;216;63004;-60
2023/11/21 00:37:56;;;;;;;0.60;0.60;;;;;;;6.53;100.00;96263.41;29395;206;63008;-61
2023/11/21 00:38:28;;;;;;;0.60;0.60;;;;;;;6.53;100.00;96260.72;29395;233;63005;-60
2023/11/21 00:38:59;;;;;;;0.57;0.57;;;;;;;6.53;100.00;96258.84;29395;327;63009;-60
2023/11/21 00:39:30;;;;;;;0.50;0.50;;;;;;;6.53;100.00;96261.53;29395;221;63005;-61
2023/11/21 00:40:05;;;;;;;0.60;0.60;;;;;;;6.53;100.00;96261.53;29395;261;63005;-60
2023/11/21 00:40:37;;;;;;;0.50;0.50;;;;;;;6.52;100.00;96259.91;29395;199;63005;-59
2023/11/21 00:41:09;;;;;;;0.50;0.50;;;;;;;6.50;100.00;96266.69;29395;216;63009;-61
2023/11/21 00:41:40;;;;;;;0.50;0.50;;;;;;;6.51;100.00;96273.69;29395;202;63008;-61
2023/11/21 00:42:11;;;;;;;0.60;0.60;;;;;;;6.52;100.00;96265.31;29394;225;64013;-60
2023/11/21 00:42:43;;;;;;;0.50;0.50;;;;;;;6.51;100.00;96269.09;29394;199;64009;-60
2023/11/21 00:43:15;;;;;;;0.50;0.50;;;;;;;6.54;100.00;96267.72;29395;204;63009;-60
2023/11/21 00:43:46;;;;;;;0.50;0.50;;;;;;;6.58;100.00;96264.19;29395;316;63004;-60
2023/11/21 00:44:17;;;;;;;0.60;0.60;;;;;;;6.58;100.00;96266.87;29395;198;63009;-59
2023/11/21 00:44:48;;;;;;;0.60;0.60;;;;;;;6.56;100.00;96255.56;29394;196;64009;-59
2023/11/21 00:45:20;;;;;;;0.55;0.55;;;;;;;6.54;100.00;96263.12;29395;257;63008;-60
2023/11/21 00:45:51;;;;;;;0.60;0.60;;;;;;;6.54;100.00;96268.53;29395;243;63004;-60
2023/11/21 00:46:24;;;;;;;0.50;0.50;;;;;;;6.53;100.00;96261.53;29395;265;63009;-60
2023/11/21 00:46:55;;;;;;;0.60;0.60;;;;;;;6.53;100.00;96268.81;29395;274;63005;-59
2023/11/21 00:47:26;;;;;;;0.60;0.60;;;;;;;6.53;100.00;96268.81;29395;203;63009;-60
2023/11/21 00:47:58;;;;;;;0.60;0.60;;;;;;;6.50;100.00;96262.09;29395;209;63005;-57
2023/11/21 00:48:29;;;;;;;0.50;0.50;;;;;;;6.52;100.00;96265.31;29395;231;63026;-59
2023/11/21 00:49:00;;;;;;;0.60;0.60;;;;;;;6.52;100.00;96259.91;29395;253;63005;-59
2023/11/21 00:49:32;;;;;;;0.60;0.60;;;;;;;6.52;100.00;96265.31;29395;240;63009;-60
2023/11/21 00:50:06;;;;;;;0.57;0.57;;;;;;;6.52;100.00;96262.62;29394;197;64009;-59
2023/11/21 00:50:37;;;;;;;0.60;0.60;;;;;;;6.51;100.00;96258.31;29395;207;63009;-59
2023/11/21 00:51:08;;;;;;;0.50;0.50;;;;;;;6.52;100.00;96264.50;29395;207;63009;-60
2023/11/21 00:51:40;;;;;;;0.50;0.50;;;;;;;6.51;100.00;96266.41;29395;292;63009;-59
2023/11/21 00:52:11;;;;;;;0.60;0.60;;;;;;;6.51;100.00;96261.00;29395;238;63010;-59
2023/11/21 00:52:42;;;;;;;0.60;0.60;;;;;;;6.50;100.00;96261.28;29395;202;63014;-59
2023/11/21 00:53:13;;;;;;;0.60;0.60;;;;;;;6.49;100.00;96268.56;29394;217;64008;-59
2023/11/21 00:53:48;;;;;;;0.60;0.60;;;;;;;6.49;100.00;96265.87;29394;233;64014;-63
2023/11/21 00:54:19;;;;;;;0.50;0.50;;;;;;;6.51;100.00;96263.69;29395;220;63005;-59
2023/11/21 00:54:50;;;;;;;0.60;0.60;;;;;;;6.51;100.00;96258.31;29395;209;63009;-59
2023/11/21 00:55:22;;;;;;;0.60;0.60;;;;;;;6.51;100.00;96263.69;29394;213;64009;-60
2023/11/21 00:55:57;;;;;;;0.60;0.60;;;;;;;6.53;100.00;96260.72;29394;197;64013;-59
2023/11/21 00:56:28;;;;;;;0.50;0.50;;;;;;;6.56;100.00;96260.97;29395;273;63005;-59
2023/11/21 00:57:00;;;;;;;0.60;0.60;;;;;;;6.56;100.00;96260.97;29395;257;63009;-60
2023/11/21 00:57:31;;;;;;;0.60;0.60;;;;;;;6.56;100.00;96271.75;29395;206;63005;-59
2023/11/21 00:58:04;;;;;;;0.60;0.60;;;;;;;6.56;100.00;96260.16;29395;278;63027;-59
2023/11/21 00:58:35;;;;;;;0.50;0.50;;;;;;;6.56;100.00;96265.56;29395;224;63004;-60
2023/11/21 00:59:06;;;;;;;0.60;0.60;;;;;;;6.56;100.00;96262.84;29395;275;63009;-60
2023/11/21 00:59:38;;;;;;;0.60;0.60;;;;;;;6.58;100.00;96264.19;29395;243;63004;-59
2023/11/21 01:00:19;;;;;;;0.50;0.50;;;;;;;6.57;100.00;96267.97;29395;213;63015;-59
2023/11/21 01:00:50;;;;;;;0.60;0.60;;;;;;;6.54;100.00;96262.34;29417;205;63004;-59
2023/11/21 01:01:23;;;;;;;0.50;0.50;;;;;;;6.52;100.00;96264.50;29394;222;64014;-59
2023/11/21 01:01:54;;;;;;;0.60;0.60;;;;;;;6.51;100.00;96262.91;29395;197;63005;-58
2023/11/21 01:02:25;;;;;;;0.60;0.60;;;;;;;6.49;100.00;96265.06;29395;222;63009;-60
2023/11/21 01:02:58;;;;;;;0.60;0.60;;;;;;;6.49;100.00;96265.06;29395;199;63005;-59
2023/11/21 01:03:29;;;;;;;0.60;0.60;;;;;;;6.47;100.00;96262.66;29394;248;64013;-58
2023/11/21 01:04:00;;;;;;;0.50;0.50;;;;;;;6.47;100.00;96262.66;29395;211;63005;-59
2023/11/21 01:04:32;;;;;;;0.60;0.60;;;;;;;6.47;100.00;96264.53;29395;197;63009;-59
2023/11/21 01:05:04;;;;;;;0.60;0.60;;;;;;;6.48;100.00;96258.06;29395;279;63016;-59
2023/11/21 01:05:36;;;;;;;0.60;0.60;;;;;;;6.48;100.00;96269.66;29395;204;63009;-58
2023/11/21 01:06:08;;;;;;;0.60;0.60;;;;;;;6.48;100.00;96269.66;29395;275;63004;-60
2023/11/21 01:06:39;;;;;;;0.50;0.50;;;;;;;6.47;100.00;96268.03;29395;211;63009;-59
2023/11/21 01:07:11;;;;;;;0.57;0.57;;;;;;;6.47;100.00;96268.03;29395;261;63004;-59
2023/11/21 01:07:42;;;;;;;0.60;0.60;;;;;;;6.46;100.00;96271.81;29395;256;63008;-58
2023/11/21 01:08:13;;;;;;;0.60;0.60;;;;;;;6.46;100.00;96271.81;29395;210;63004;-58
2023/11/21 01:08:44;;;;;;;0.60;0.60;;;;;;;6.45;100.00;96264.81;29394;225;64014;-58
2023/11/21 01:09:18;;;;;;;0.50;0.50;;;;;;;6.45;100.00;96269.41;29395;219;63005;-58
2023/11/21 01:09:49;;;;;;;0.60;0.60;;;;;;;6.44;100.00;96267.78;29395;218;63009;-59
2023/11/21 01:10:21;;;;;;;0.60;0.60;;;;;;;6.44;100.00;96268.59;29394;251;64009;-58
2023/11/21 01:10:52;;;;;;;0.60;0.60;;;;;;;6.44;100.00;96268.59;29395;213;63009;-59
2023/11/21 01:11:23;;;;;;;0.60;0.60;;;;;;;6.43;100.00;96271.56;29395;236;63005;-59
2023/11/21 01:11:54;;;;;;;0.60;0.60;;;;;;;6.44;100.00;96267.78;29395;217;63009;-59
2023/11/21 01:12:26;;;;;;;0.60;0.60;;;;;;;6.43;100.00;96264.28;29395;248;63004;-58
2023/11/21 01:12:57;;;;;;;0.60;0.60;;;;;;;6.43;100.00;96261.59;29395;251;63009;-59
2023/11/21 01:13:29;;;;;;;0.60;0.60;;;;;;;6.46;100.00;96266.44;29395;253;63004;-59
2023/11/21 01:14:00;;;;;;;0.50;0.50;;;;;;;6.44;100.00;96263.22;29394;205;64013;-59
2023/11/21 01:14:31;;;;;;;0.50;0.50;;;;;;;6.44;100.00;96265.91;29395;262;63004;-59
2023/11/21 01:15:07;;;;;;;0.50;0.50;;;;;;;6.44;100.00;96263.22;29395;225;63008;-60
2023/11/21 01:15:39;;;;;;;0.60;0.60;;;;;;;6.44;100.00;96267.78;29395;197;63005;-58
2023/11/21 01:16:10;;;;;;;0.50;0.50;;;;;;;6.44;100.00;96262.41;29395;243;63009;-58
2023/11/21 01:16:41;;;;;;;0.60;0.60;;;;;;;6.44;100.00;96263.22;29395;306;63005;-59
2023/11/21 01:17:12;;;;;;;0.50;0.50;;;;;;;6.45;100.00;96264.81;29395;279;63009;-59
2023/11/21 01:17:43;;;;;;;0.60;0.60;;;;;;;6.44;100.00;96263.22;29395;208;63005;-59
2023/11/21 01:18:15;;;;;;;0.50;0.50;;;;;;;6.45;100.00;96264.00;29395;228;63009;-58
2023/11/21 01:18:46;;;;;;;0.60;0.60;;;;;;;6.43;100.00;96266.19;29394;202;64009;-58
2023/11/21 01:19:18;;;;;;;0.60;0.60;;;;;;;6.44;100.00;96263.22;29394;227;64013;-59
2023/11/21 01:19:49;;;;;;;0.50;0.50;;;;;;;6.44;100.00;96267.78;29395;247;63004;-59
2023/11/21 01:20:20;;;;;;;0.55;0.55;;;;;;;6.44;100.00;96262.41;29395;221;63009;-59
2023/11/21 01:20:55;;;;;;;0.50;0.50;;;;;;;6.44;100.00;96265.91;29395;214;63004;-59
2023/11/21 01:21:27;;;;;;;0.57;0.57;;;;;;;6.43;100.00;96267.00;29395;206;63009;-58
2023/11/21 01:21:59;;;;;;;0.60;0.60;;;;;;;6.44;100.00;96262.41;29395;209;63004;-59
2023/11/21 01:22:30;;;;;;;0.50;0.50;;;;;;;6.47;100.00;96267.22;29394;201;64013;-58
2023/11/21 01:23:01;;;;;;;0.60;0.60;;;;;;;6.47;100.00;96262.66;29395;197;63005;-60
2023/11/21 01:23:32;;;;;;;0.60;0.60;;;;;;;6.48;100.00;96261.56;29395;254;63009;-64
2023/11/21 01:24:08;;;;;;;0.60;0.60;;;;;;;6.48;100.00;96258.87;29395;209;63005;-58
2023/11/21 01:24:39;;;;;;;0.60;0.60;;;;;;;6.49;100.00;96262.38;29394;218;64013;-59
2023/11/21 01:25:11;;;;;;;0.50;0.50;;;;;;;6.51;100.00;96258.31;29395;205;63005;-59
2023/11/21 01:25:42;;;;;;;0.50;0.50;;;;;;;6.51;100.00;96258.31;29395;238;63009;-59
2023/11/21 01:26:13;;;;;;;0.60;0.60;;;;;;;6.51;100.00;96262.91;29395;266;63005;-59
2023/11/21 01:26:46;;;;;;;0.60;0.60;;;;;;;6.52;100.00;96259.13;29395;221;63017;-58
2023/11/21 01:27:18;;;;;;;0.60;0.60;;;;;;;6.50;100.00;96251.31;29395;209;63004;-58
2023/11/21 01:27:49;;;;;;;0.50;0.50;;;;;;;6.53;100.00;96255.34;29395;211;63009;-58
2023/11/21 01:28:21;;;;;;;0.50;0.50;;;;;;;6.53;100.00;96253.44;29395;209;63004;-59
2023/11/21 01:28:52;;;;;;;0.50;0.50;;;;;;;6.54;100.00;96256.94;29395;261;63009;-58
2023/11/21 01:29:23;;;;;;;0.55;0.55;;;;;;;6.53;100.00;96255.34;29395;244;63004;-58
2023/11/21 01:29:55;;;;;;;0.60;0.60;;;;;;;6.52;100.00;96259.91;29394;212;64013;-59
2023/11/21 01:30:26;;;;;;;0.50;0.50;;;;;;;6.54;100.00;96256.94;29395;231;63005;-58
2023/11/21 01:30:57;;;;;;;0.50;0.50;;;;;;;6.56;100.00;96255.56;29395;220;63009;-58
2023/11/21 01:31:29;;;;;;;0.60;0.60;;;;;;;6.55;100.00;96263.94;29394;227;64009;-58
2023/11/21 01:32:02;;;;;;;0.50;0.50;;;;;;;6.54;100.00;96260.44;29395;206;63009;-58
2023/11/21 01:32:33;;;;;;;0.50;0.50;;;;;;;6.54;100.00;96260.44;29395;203;63005;-59
2023/11/21 01:33:05;;;;;;;0.50;0.50;;;;;;;6.50;100.00;96262.09;29395;209;63009;-59
2023/11/21 01:33:36;;;;;;;0.50;0.50;;;;;;;6.50;100.00;96259.41;29395;262;63005;-58
2023/11/21 01:34:07;;;;;;;0.50;0.50;;;;;;;6.49;100.00;96265.87;29395;263;63009;-57
2023/11/21 01:34:39;;;;;;;0.50;0.50;;;;;;;6.47;100.00;96262.66;29394;199;64009;-58
2023/11/21 01:35:10;;;;;;;0.50;0.50;;;;;;;6.47;100.00;96259.97;29395;250;63009;-59
2023/11/21 01:35:42;;;;;;;0.60;0.60;;;;;;;6.49;100.00;96259.69;29395;220;63004;-59
2023/11/21 01:36:13;;;;;;;0.60;0.60;;;;;;;6.49;100.00;96265.87;29394;302;64013;-58
2023/11/21 01:36:47;;;;;;;0.60;0.60;;;;;;;6.49;100.00;96265.87;29395;202;63004;-58
2023/11/21 01:37:19;;;;;;;0.60;0.60;;;;;;;6.49;100.00;96248.91;29395;202;63008;-58
2023/11/21 01:37:50;;;;;;;0.60;0.60;;;;;;;6.49;100.00;96256.97;29395;202;63004;-59
2023/11/21 01:38:22;;;;;;;0.60;0.60;;;;;;;6.49;100.00;96260.47;29395;295;63024;-58
2023/11/21 01:38:54;;;;;;;0.50;0.50;;;;;;;6.53;100.00;96261.53;29395;203;63005;-58
2023/11/21 01:39:26;;;;;;;0.60;0.60;;;;;;;6.53;100.00;96266.91;29395;242;63009;-58
2023/11/21 01:39:58;;;;;;;0.50;0.50;;;;;;;6.52;100.00;96254.53;29395;205;63005;-59
2023/11/21 01:40:30;;;;;;;0.60;0.60;;;;;;;6.52;100.00;96265.31;29395;213;63009;-59
2023/11/21 01:41:01;;;;;;;0.50;0.50;;;;;;;6.51;100.00;96258.31;29395;211;63005;-60
2023/11/21 01:41:32;;;;;;;0.60;0.60;;;;;;;6.53;100.00;96260.72;29394;202;64013;-60
2023/11/21 01:42:05;;;;;;;0.50;0.50;;;;;;;6.53;100.00;96256.13;29395;253;63005;-58
2023/11/21 01:42:36;;;;;;;0.50;0.50;;;;;;;6.53;100.00;96255.34;29395;216;63009;-59
2023/11/21 01:43:08;;;;;;;0.60;0.60;;;;;;;6.53;100.00;96260.72;29394;278;64004;-58
2023/11/21 01:43:39;;;;;;;0.60;0.60;;;;;;;6.51;100.00;96261.00;29395;245;63009;-58
2023/11/21 01:44:11;;;;;;;0.60;0.60;;;;;;;6.52;100.00;96257.22;29395;251;63012;-58
2023/11/21 01:44:42;;;;;;;0.60;0.60;;;;;;;6.50;100.00;96255.91;29395;258;63008;-59
2023/11/21 01:45:14;;;;;;;0.60;0.60;;;;;;;6.50;100.00;96261.28;29395;202;63004;-58
2023/11/21 01:45:45;;;;;;;0.57;0.57;;;;;;;6.49;100.00;96254.28;29395;316;63009;-58
2023/11/21 01:46:16;;;;;;;0.50;0.50;;;;;;;6.48;100.00;96256.19;29395;219;63005;-58
2023/11/21 01:46:48;;;;;;;0.50;0.50;;;;;;;6.50;100.00;96255.91;29394;266;64014;-58
2023/11/21 01:47:21;;;;;;;0.60;0.60;;;;;;;6.49;100.00;96255.09;29395;254;63005;-58
2023/11/21 01:47:53;;;;;;;0.60;0.60;;;;;;;6.50;100.00;96259.41;29395;237;63009;-58
2023/11/21 01:48:25;;;;;;;0.50;0.50;;;;;;;6.50;100.00;96261.28;29395;206;63005;-58
2023/11/21 01:48:57;;;;;;;0.52;0.52;;;;;;;6.49;100.00;96255.09;29395;212;63009;-58
2023/11/21 01:49:28;;;;;;;0.60;0.60;;;;;;;6.51;100.00;96246.72;29395;216;63005;-58
2023/11/21 01:50:00;;;;;;;0.57;0.57;;;;;;;6.50;100.00;96251.31;29395;202;63009;-58
2023/11/21 01:50:31;;;;;;;0.50;0.50;;;;;;;6.52;100.00;96254.53;29395;204;63004;-59
2023/11/21 01:51:03;;;;;;;0.60;0.60;;;;;;;6.53;100.00;96253.44;29395;225;63009;-58
2023/11/21 01:51:35;;;;;;;0.50;0.50;;;;;;;6.57;100.00;96254.50;29395;272;63004;-59
2023/11/21 01:52:07;;;;;;;0.60;0.60;;;;;;;6.57;100.00;96254.50;29394;264;64013;-58
2023/11/21 01:52:41;;;;;;;0.50;0.50;;;;;;;6.57;100.00;96249.09;29395;203;63004;-59
2023/11/21 01:53:13;;;;;;;0.50;0.50;;;;;;;6.58;100.00;96245.31;29395;221;63016;-58
2023/11/21 01:53:46;;;;;;;0.60;0.60;;;;;;;6.58;100.00;96253.41;29395;226;63018;-58
2023/11/21 01:54:18;;;;;;;0.50;0.50;;;;;;;6.57;100.00;96251.78;29395;200;63009;-58
2023/11/21 01:54:50;;;;;;;0.50;0.50;;;;;;;6.56;100.00;96249.38;29395;212;63005;-58
2023/11/21 01:55:22;;;;;;;0.50;0.50;;;;;;;6.54;100.00;96252.34;29395;244;63009;-58
2023/11/21 01:55:54;;;;;;;0.50;0.50;;;;;;;6.53;100.00;96253.44;29394;303;64009;-60
2023/11/21 01:56:26;;;;;;;0.50;0.50;;;;;;;6.54;100.00;96251.56;29395;205;63009;-57
2023/11/21 01:57:02;;;;;;;0.50;0.50;;;;;;;6.55;100.00;96245.88;29395;255;63005;-59
2023/11/21 01:57:34;;;;;;;0.50;0.50;;;;;;;6.54;100.00;96248.84;29395;218;63009;-57
2023/11/21 01:58:07;;;;;;;0.60;0.60;;;;;;;6.55;100.00;96245.06;29394;253;64009;-58
2023/11/21 01:58:39;;;;;;;0.50;0.50;;;;;;;6.56;100.00;96252.06;29395;203;63009;-59
2023/11/21 01:59:12;;;;;;;0.50;0.50;;;;;;;6.54;100.00;96255.06;29395;260;63004;-58
2023/11/21 01:59:46;;;;;;;0.52;0.52;;;;;;;6.53;100.00;96253.44;29395;202;63008;-59
2023/11/21 02:00:19;;;;;;;0.60;0.60;;;;;;;6.53;100.00;96260.72;29395;209;63011;-58
2023/11/21 02:00:52;;;;;;;0.50;0.50;;;;;;;6.53;100.00;96256.13;29395;272;63009;-58
2023/11/21 02:01:25;;;;;;;0.50;0.50;;;;;;;6.50;100.00;96255.91;29395;216;63005;-58
2023/11/21 02:01:57;;;;;;;0.50;0.50;;;;;;;6.49;100.00;96255.09;29395;236;63025;-58
2023/11/21 02:02:28;;;;;;;0.52;0.52;;;;;;;6.48;100.00;96258.87;29395;263;63005;-58
2023/11/21 02:02:59;;;;;;;0.60;0.60;;;;;;;6.48;100.00;96258.87;29395;219;63009;-58
2023/11/21 02:03:31;;;;;;;0.50;0.50;;;;;;;6.48;100.00;96258.87;29394;218;64009;-58
2023/11/21 02:04:03;;;;;;;0.50;0.50;;;;;;;6.50;100.00;96256.69;29395;212;63009;-59
2023/11/21 02:04:36;;;;;;;0.50;0.50;;;;;;;6.51;100.00;96258.31;29395;270;63005;-59
2023/11/21 02:05:08;;;;;;;0.60;0.60;;;;;;;6.51;100.00;96258.31;29395;242;63009;-57
2023/11/21 02:05:43;;;;;;;0.60;0.60;;;;;;;6.54;100.00;96262.34;29395;196;63004;-59
2023/11/21 02:06:15;;;;;;;0.50;0.50;;;;;;;6.56;100.00;96252.88;29395;223;63009;-58
2023/11/21 02:06:46;;;;;;;0.50;0.50;;;;;;;6.55;100.00;96259.34;29395;202;63004;-59
2023/11/21 02:07:19;;;;;;;0.50;0.50;;;;;;;6.55;100.00;96266.63;29395;214;63008;-58
2023/11/21 02:07:52;;;;;;;0.50;0.50;;;;;;;6.54;100.00;96262.34;29395;222;63004;-58
2023/11/21 02:08:23;;;;;;;0.50;0.50;;;;;;;6.55;100.00;96264.75;29394;233;64014;-58
2023/11/21 02:08:54;;;;;;;0.60;0.60;;;;;;;6.55;100.00;96264.75;29395;252;63005;-58
2023/11/21 02:09:27;;;;;;;0.50;0.50;;;;;;;6.55;100.00;96259.34;29395;245;63009;-58
2023/11/21 02:11:04;;;;;;;0.58;0.58;;;;;;;6.44;100.00;96249.75;88181;213;64004;-91
2023/11/21 02:11:35;;;;;;;0.50;0.50;;;;;;;6.54;100.00;96263.12;29394;237;64009;-91
2023/11/21 02:12:10;;;;;;;0.60;0.60;;;;;;;6.54;100.00;96255.06;29395;277;63006;-90
2023/11/21 02:12:42;;;;;;;0.50;0.50;;;;;;;6.53;100.00;96261.53;29395;202;63015;-90
2023/11/21 02:13:14;;;;;;;0.52;0.52;;;;;;;6.53;100.00;96261.53;29395;212;63004;-92
2023/11/21 02:13:47;;;;;;;0.60;0.60;;;;;;;6.51;100.00;96258.31;29394;243;64005;-90
2023/11/21 02:14:20;;;;;;;0.60;0.60;;;;;;;6.53;100.00;96250.75;29395;202;63018;-91
2023/11/21 02:14:52;;;;;;;0.50;0.50;;;;;;;6.54;100.00;96260.44;29395;199;63017;-90
2023/11/21 02:15:26;;;;;;;0.60;0.60;;;;;;;6.53;100.00;96261.53;29395;203;63004;-91
2023/11/21 02:15:58;;;;;;;0.60;0.60;;;;;;;6.55;100.00;96264.75;29395;214;63013;-91
2023/11/21 02:16:31;;;;;;;0.60;0.60;;;;;;;6.55;100.00;96262.06;29395;269;63005;-92
2023/11/21 02:17:06;;;;;;;0.60;0.60;;;;;;;6.56;100.00;96266.34;29394;275;64003;-89
2023/11/21 02:17:37;;;;;;;0.50;0.50;;;;;;;6.57;100.00;96262.56;29395;201;63005;-93
2023/11/21 02:18:11;;;;;;;0.60;0.60;;;;;;;6.56;100.00;96260.97;29395;216;63017;-90
2023/11/21 02:18:42;;;;;;;0.60;0.60;;;;;;;6.56;100.00;96258.28;29395;202;63009;-90
2023/11/21 02:19:19;;;;;;;0.60;0.60;;;;;;;6.56;100.00;96254.78;29395;214;63009;-89
2023/11/21 02:19:51;;;;;;;0.57;0.57;;;;;;;6.55;100.00;96264.75;29395;218;63005;-89
2023/11/21 02:20:24;;;;;;;0.60;0.60;;;;;;;6.53;100.00;96250.75;29394;215;64013;-89
2023/11/21 02:20:56;;;;;;;0.60;0.60;;;;;;;6.53;100.00;96249.94;29395;238;63006;-90
2023/11/21 02:21:29;;;;;;;0.60;0.60;;;;;;;6.52;100.00;96251.84;29395;236;63009;-91
2023/11/21 02:22:06;;;;;;;0.50;0.50;;;;;;;6.51;100.00;96250.22;29395;206;63004;-90
2023/11/21 02:22:40;;;;;;;0.50;0.50;;;;;;;6.55;100.00;96253.16;29395;215;63009;-92
2023/11/21 02:23:12;;;;;;;0.60;0.60;;;;;;;6.54;100.00;96246.97;29395;215;63009;-91
2023/11/21 02:23:44;;;;;;;0.60;0.60;;;;;;;6.55;100.00;96247.78;29395;206;63008;-89
2023/11/21 02:24:17;;;;;;;0.50;0.50;;;;;;;6.54;100.00;96246.97;29395;276;63012;-90
2023/11/21 02:24:49;;;;;;;0.60;0.60;;;;;;;6.52;100.00;96246.44;29395;228;63009;-91
2023/11/21 02:25:20;;;;;;;0.60;0.60;;;;;;;6.51;100.00;96244.84;29395;208;63005;-90
2023/11/21 02:25:51;;;;;;;0.60;0.60;;;;;;;6.49;100.00;96252.41;29394;198;64013;-89
2023/11/21 02:26:22;;;;;;;0.52;0.52;;;;;;;6.48;100.00;96252.69;29395;271;63005;-91
2023/11/21 02:26:54;;;;;;;0.60;0.60;;;;;;;6.47;100.00;96254.56;29395;197;63016;-90
2023/11/21 02:27:27;;;;;;;0.55;0.55;;;;;;;6.47;100.00;96246.47;29395;236;63005;-89
2023/11/21 02:28:01;;;;;;;0.60;0.60;;;;;;;6.46;100.00;96252.97;29395;221;63013;-90
2023/11/21 02:28:33;;;;;;;0.50;0.50;;;;;;;6.47;100.00;96253.75;29395;218;63004;-91
2023/11/21 02:29:04;;;;;;;0.50;0.50;;;;;;;6.47;100.00;96253.75;29395;215;63009;-91
2023/11/21 02:29:36;;;;;;;0.60;0.60;;;;;;;6.44;100.00;96249.75;29395;297;63004;-91
2023/11/21 02:30:13;;;;;;;0.50;0.50;;;;;;;6.43;100.00;96253.53;29395;218;63009;-89
2023/11/21 02:30:44;;;;;;;0.50;0.50;;;;;;;6.45;100.00;96250.53;29394;234;64008;-90
2023/11/21 02:31:16;;;;;;;0.55;0.55;;;;;;;6.46;100.00;96249.47;29395;203;63008;-92
2023/11/21 02:31:50;;;;;;;0.50;0.50;;;;;;;6.50;100.00;96250.50;29395;211;63008;-91
2023/11/21 02:32:22;;;;;;;0.50;0.50;;;;;;;6.51;100.00;96247.53;29395;222;63009;-92
2023/11/21 02:32:56;;;;;;;0.50;0.50;;;;;;;6.54;100.00;96246.97;29395;214;63005;-91
2023/11/21 02:33:28;;;;;;;0.60;0.60;;;;;;;6.57;100.00;96241.00;29395;208;63009;-91